Green Village, NJ (07935)

8:40 PM EDT on September 02, 2014 (GMT -0400)
Chatham | Change Station
CLOSE
Current Station
Personal Weather Station
Location: Chatham, NJ
Elevation: 315 ft
Nearby Weather Stations
Active Advisory: Air Quality Alert

Elev 315 ft 40.74 °N, 74.42 °W | Updated 9 seconds ago

Partly Cloudy
Partly Cloudy
78.4 °F
Feels Like 81 °F
N
0.9
Wind Variable Wind from SSE
Gusts 1.0 mph

Today
High -- | Low -- °F
--% Chance of Precip.
Yesterday
High -- | Low -- °F
Precip. -- in
6:25 AM 7:28 PM
First Quarter, 56% visible
Pressure 29.82 in
Visibility 10.0 miles
Clouds Few 15000 ft
Heat Index 81 °F
Dew Point 71 °F
Humidity 77%
Rainfall 0.00 in
Snow Depth Not available.
UV 0 out of 12
Pollen 8.40 out of 12
Ozone Good
PM2.5 Moderate
Flu Activity Not available.
METAR KMMU 022347Z 22005KT 10SM FEW150 29/20 A2982

More Conditions Fewer Conditions

Pressure 29.82 in
Visibility 10.0 miles
Clouds Few 15000 ft
Heat Index 81 °F
Dew Point 71 °F
Humidity 77%
Rainfall 0.00 in
Snow Depth Not available.
UV 0 out of 12
Pollen 8.40 out of 12
Ozone Good
PM2.5 Moderate
Flu Activity Not available.
METAR KMMU 022347Z 22005KT 10SM FEW150 29/20 A2982

More Conditions Fewer Conditions

10-Day Weather Forecast

Almanac

Astronomy

Sep. 02, 2014 Rise Set
Actual Time 6:25 AM EDT 7:28 PM EDT
Civil Twilight 5:57 AM EDT 7:56 PM EDT
Nautical Twilight 5:24 AM EDT 8:29 PM EDT
Astronomical Twilight 4:49 AM EDT 9:04 PM EDT
Moon 2:09 PM EDT (9/2) No Moon Set
Length of Visible Light 13h 58m
Length of Day
13h 02m
Tomorrow will be 2m 37s shorter.
First Quarter, 56% of the Moon is Illuminated
Today
First Quarter
Sep 8
Full
Sep 15
Last Quarter
Sep 24
New
Oct 1
First Quarter

Today's Extremes

State Highs State Lows

Community

WunderPhotos

Upload Photos

1,749,808 photos uploaded!

Nearby

Air Quality

  Air Quality AQ Index Pollutant
Yesterday Good
PM2.5
Yesterday Good
OZONE
Current Moderate
PM2.5
Current Good
OZONE
Tuesday Moderate
OZONE
Tuesday Moderate
PM2.5
Wednesday Good
OZONE
Wednesday Good
PM2.5

Snow Depth

Station Depth Elevation
No new snow has been reported.

Earthquake Activity

City Distance Mag. Time & Date
No recent earthquake activity has been reported nearby.
Minimum magnitude displayed is 2.5.

Coastal Water Temperatures

Place Temperature
Sandy Hook, NJ 79.0 °F
The Battery, NY 75.9 °F
Bergen Point West Reach, NJ 75.9 °F
Kings Point, NY 75.0 °F

Nearby Weather Stations